sensor_id;sensor_type;location;lat;lon;timestamp;pressure;altitude;pressure_sealevel;temperature;humidity
67373;BME280;54257;54.496;18.412;2023-05-19T00:01:13;101199.44;;;6.37;64.44
67373;BME280;54257;54.496;18.412;2023-05-19T00:03:54;101201.23;;;6.36;64.42
67373;BME280;54257;54.496;18.412;2023-05-19T00:06:27;101200.02;;;6.35;64.33
67373;BME280;54257;54.496;18.412;2023-05-19T00:09:00;101199.58;;;6.37;64.14
67373;BME280;54257;54.496;18.412;2023-05-19T00:11:28;101198.81;;;6.35;64.15
67373;BME280;54257;54.496;18.412;2023-05-19T00:13:57;101200.75;;;6.34;64.03
67373;BME280;54257;54.496;18.412;2023-05-19T00:16:26;101202.54;;;6.32;63.75
67373;BME280;54257;54.496;18.412;2023-05-19T00:18:53;101203.60;;;6.30;63.77
67373;BME280;54257;54.496;18.412;2023-05-19T00:21:20;101203.66;;;6.28;64.00
67373;BME280;54257;54.496;18.412;2023-05-19T00:23:47;101203.31;;;6.25;64.15
67373;BME280;54257;54.496;18.412;2023-05-19T00:26:14;101206.88;;;6.21;64.03
67373;BME280;54257;54.496;18.412;2023-05-19T00:28:40;101207.55;;;6.18;64.04
67373;BME280;54257;54.496;18.412;2023-05-19T00:31:08;101212.28;;;6.14;64.05
67373;BME280;54257;54.496;18.412;2023-05-19T00:33:35;101216.45;;;6.10;64.34
67373;BME280;54257;54.496;18.412;2023-05-19T00:36:02;101214.33;;;6.06;64.58
67373;BME280;54257;54.496;18.412;2023-05-19T00:38:30;101215.05;;;6.00;64.68
67373;BME280;54257;54.496;18.412;2023-05-19T00:40:58;101214.05;;;5.98;64.82
67373;BME280;54257;54.496;18.412;2023-05-19T00:43:25;101214.64;;;5.93;65.08
67373;BME280;54257;54.496;18.412;2023-05-19T00:45:53;101216.70;;;5.90;65.19
67373;BME280;54257;54.496;18.412;2023-05-19T00:48:20;101218.41;;;5.88;65.35
67373;BME280;54257;54.496;18.412;2023-05-19T00:50:48;101218.11;;;5.85;65.50
67373;BME280;54257;54.496;18.412;2023-05-19T00:53:17;101212.49;;;5.82;65.47
67373;BME280;54257;54.496;18.412;2023-05-19T00:55:44;101211.36;;;5.80;65.40
67373;BME280;54257;54.496;18.412;2023-05-19T00:58:13;101214.86;;;5.79;65.20
67373;BME280;54257;54.496;18.412;2023-05-19T01:00:40;101214.60;;;5.77;65.15
67373;BME280;54257;54.496;18.412;2023-05-19T01:03:08;101217.05;;;5.76;65.03
67373;BME280;54257;54.496;18.412;2023-05-19T01:05:39;101216.48;;;5.75;64.93
67373;BME280;54257;54.496;18.412;2023-05-19T01:08:19;101211.95;;;5.72;65.05
67373;BME280;54257;54.496;18.412;2023-05-19T01:10:46;101211.25;;;5.66;65.34
67373;BME280;54257;54.496;18.412;2023-05-19T01:13:13;101212.88;;;5.62;65.50
67373;BME280;54257;54.496;18.412;2023-05-19T01:16:00;101210.98;;;5.58;65.28
67373;BME280;54257;54.496;18.412;2023-05-19T01:18:43;101207.71;;;5.57;65.37
67373;BME280;54257;54.496;18.412;2023-05-19T01:23:51;101211.83;;;5.52;65.27
67373;BME280;54257;54.496;18.412;2023-05-19T01:30:28;101216.06;;;5.50;65.17
67373;BME280;54257;54.496;18.412;2023-05-19T01:32:29;101216.68;;;5.48;65.07
67373;BME280;54257;54.496;18.412;2023-05-19T01:34:57;101215.58;;;5.44;65.44
67373;BME280;54257;54.496;18.412;2023-05-19T01:37:26;101214.17;;;5.40;65.62
67373;BME280;54257;54.496;18.412;2023-05-19T01:39:53;101214.20;;;5.38;65.36
67373;BME280;54257;54.496;18.412;2023-05-19T01:42:22;101212.53;;;5.35;65.36
67373;BME280;54257;54.496;18.412;2023-05-19T01:44:50;101214.01;;;5.34;65.44
67373;BME280;54257;54.496;18.412;2023-05-19T01:47:17;101210.89;;;5.33;65.37
67373;BME280;54257;54.496;18.412;2023-05-19T01:49:44;101214.08;;;5.30;65.74
67373;BME280;54257;54.496;18.412;2023-05-19T01:52:11;101212.15;;;5.26;65.72
67373;BME280;54257;54.496;18.412;2023-05-19T01:54:38;101213.03;;;5.23;65.71
67373;BME280;54257;54.496;18.412;2023-05-19T01:57:20;101212.65;;;5.20;65.83
67373;BME280;54257;54.496;18.412;2023-05-19T02:00:08;101212.55;;;5.15;65.95
67373;BME280;54257;54.496;18.412;2023-05-19T02:07:00;101212.16;;;5.03;66.41
67373;BME280;54257;54.496;18.412;2023-05-19T02:12:31;101212.79;;;4.99;66.78
67373;BME280;54257;54.496;18.412;2023-05-19T02:15:10;101207.79;;;4.95;66.51
67373;BME280;54257;54.496;18.412;2023-05-19T02:17:40;101208.66;;;4.95;66.57
67373;BME280;54257;54.496;18.412;2023-05-19T02:20:08;101207.58;;;4.97;66.57
67373;BME280;54257;54.496;18.412;2023-05-19T02:22:35;101205.92;;;4.97;66.31
67373;BME280;54257;54.496;18.412;2023-05-19T02:25:02;101208.14;;;4.97;66.24
67373;BME280;54257;54.496;18.412;2023-05-19T02:27:29;101206.71;;;4.96;66.13
67373;BME280;54257;54.496;18.412;2023-05-19T02:29:56;101206.64;;;4.95;66.44
67373;BME280;54257;54.496;18.412;2023-05-19T02:32:23;101205.98;;;4.90;66.72
67373;BME280;54257;54.496;18.412;2023-05-19T02:34:51;101204.80;;;4.84;66.88
67373;BME280;54257;54.496;18.412;2023-05-19T02:37:18;101209.44;;;4.83;66.80
67373;BME280;54257;54.496;18.412;2023-05-19T02:39:49;101210.48;;;4.83;66.92
67373;BME280;54257;54.496;18.412;2023-05-19T02:42:16;101203.20;;;4.83;66.79
67373;BME280;54257;54.496;18.412;2023-05-19T02:44:43;101204.81;;;4.85;66.88
67373;BME280;54257;54.496;18.412;2023-05-19T02:47:11;101201.02;;;4.83;66.90
67373;BME280;54257;54.496;18.412;2023-05-19T02:49:39;101199.99;;;4.80;67.18
67373;BME280;54257;54.496;18.412;2023-05-19T02:52:05;101203.64;;;4.79;67.44
67373;BME280;54257;54.496;18.412;2023-05-19T02:54:33;101204.22;;;4.77;67.38
67373;BME280;54257;54.496;18.412;2023-05-19T02:57:00;101200.52;;;4.75;67.49
67373;BME280;54257;54.496;18.412;2023-05-19T02:59:27;101203.83;;;4.73;67.82
67373;BME280;54257;54.496;18.412;2023-05-19T03:01:58;101202.62;;;4.70;67.85
67373;BME280;54257;54.496;18.412;2023-05-19T03:04:25;101200.23;;;4.70;67.98
67373;BME280;54257;54.496;18.412;2023-05-19T03:06:52;101200.54;;;4.70;68.33
67373;BME280;54257;54.496;18.412;2023-05-19T03:09:19;101200.20;;;4.70;68.44
67373;BME280;54257;54.496;18.412;2023-05-19T03:11:46;101201.60;;;4.70;68.54
67373;BME280;54257;54.496;18.412;2023-05-19T03:14:13;101197.21;;;4.71;68.69
67373;BME280;54257;54.496;18.412;2023-05-19T03:16:40;101200.16;;;4.72;68.67
67373;BME280;54257;54.496;18.412;2023-05-19T03:19:08;101197.70;;;4.73;68.61
67373;BME280;54257;54.496;18.412;2023-05-19T03:21:35;101191.52;;;4.74;69.03
67373;BME280;54257;54.496;18.412;2023-05-19T03:24:02;101195.32;;;4.78;69.30
67373;BME280;54257;54.496;18.412;2023-05-19T03:26:29;101197.05;;;4.82;69.41
67373;BME280;54257;54.496;18.412;2023-05-19T03:28:56;101194.09;;;4.83;69.73
67373;BME280;54257;54.496;18.412;2023-05-19T03:31:22;101196.80;;;4.87;69.92
67373;BME280;54257;54.496;18.412;2023-05-19T03:33:52;101199.29;;;4.91;70.15
67373;BME280;54257;54.496;18.412;2023-05-19T03:36:19;101197.56;;;4.93;70.33
67373;BME280;54257;54.496;18.412;2023-05-19T03:38:47;101198.61;;;4.97;70.53
67373;BME280;54257;54.496;18.412;2023-05-19T03:41:14;101202.33;;;4.94;70.50
67373;BME280;54257;54.496;18.412;2023-05-19T03:43:41;101206.40;;;4.88;70.77
67373;BME280;54257;54.496;18.412;2023-05-19T03:46:08;101211.77;;;4.85;70.61
67373;BME280;54257;54.496;18.412;2023-05-19T03:48:35;101209.52;;;4.84;70.85
67373;BME280;54257;54.496;18.412;2023-05-19T03:51:02;101204.27;;;4.87;71.26
67373;BME280;54257;54.496;18.412;2023-05-19T03:53:29;101202.61;;;4.93;71.45
67373;BME280;54257;54.496;18.412;2023-05-19T03:55:56;101203.23;;;5.01;71.83
67373;BME280;54257;54.496;18.412;2023-05-19T03:58:23;101202.60;;;5.07;72.11
67373;BME280;54257;54.496;18.412;2023-05-19T04:00:50;101207.89;;;5.17;72.37
67373;BME280;54257;54.496;18.412;2023-05-19T04:03:17;101203.92;;;5.24;72.73
67373;BME280;54257;54.496;18.412;2023-05-19T04:05:44;101205.48;;;5.30;73.37
67373;BME280;54257;54.496;18.412;2023-05-19T04:08:11;101205.69;;;5.37;73.59
67373;BME280;54257;54.496;18.412;2023-05-19T04:10:37;101207.64;;;5.44;73.79
67373;BME280;54257;54.496;18.412;2023-05-19T04:13:04;101208.63;;;5.53;73.99
67373;BME280;54257;54.496;18.412;2023-05-19T04:15:31;101213.25;;;5.62;74.20
67373;BME280;54257;54.496;18.412;2023-05-19T04:17:58;101210.41;;;5.72;74.36
67373;BME280;54257;54.496;18.412;2023-05-19T04:20:24;101209.11;;;5.82;74.38
67373;BME280;54257;54.496;18.412;2023-05-19T04:22:51;101209.38;;;5.93;74.10
67373;BME280;54257;54.496;18.412;2023-05-19T04:25:18;101208.92;;;6.03;74.28
67373;BME280;54257;54.496;18.412;2023-05-19T04:27:45;101202.84;;;6.12;74.89
67373;BME280;54257;54.496;18.412;2023-05-19T04:30:13;101203.91;;;6.23;75.07
67373;BME280;54257;54.496;18.412;2023-05-19T04:32:47;101203.66;;;6.34;75.43
67373;BME280;54257;54.496;18.412;2023-05-19T04:35:20;101203.58;;;6.45;75.63
67373;BME280;54257;54.496;18.412;2023-05-19T04:37:48;101205.51;;;6.56;76.07
67373;BME280;54257;54.496;18.412;2023-05-19T04:40:15;101208.67;;;6.67;76.33
67373;BME280;54257;54.496;18.412;2023-05-19T04:42:42;101204.27;;;6.78;76.63
67373;BME280;54257;54.496;18.412;2023-05-19T04:45:12;101206.28;;;6.90;77.00
67373;BME280;54257;54.496;18.412;2023-05-19T04:47:40;101203.99;;;6.98;77.67
67373;BME280;54257;54.496;18.412;2023-05-19T04:50:07;101207.11;;;7.10;77.67
67373;BME280;54257;54.496;18.412;2023-05-19T04:52:35;101207.98;;;7.20;77.86
67373;BME280;54257;54.496;18.412;2023-05-19T04:55:03;101204.98;;;7.32;78.44
67373;BME280;54257;54.496;18.412;2023-05-19T04:57:30;101207.35;;;7.45;78.29
67373;BME280;54257;54.496;18.412;2023-05-19T04:59:57;101207.94;;;7.57;78.15
67373;BME280;54257;54.496;18.412;2023-05-19T05:02:25;101206.37;;;7.70;78.13
67373;BME280;54257;54.496;18.412;2023-05-19T05:04:55;101208.15;;;7.82;78.06
67373;BME280;54257;54.496;18.412;2023-05-19T05:07:22;101211.64;;;7.95;77.84
67373;BME280;54257;54.496;18.412;2023-05-19T05:09:50;101211.39;;;8.08;77.63
67373;BME280;54257;54.496;18.412;2023-05-19T05:12:17;101207.91;;;8.21;77.47
67373;BME280;54257;54.496;18.412;2023-05-19T05:14:47;101209.04;;;8.34;77.46
67373;BME280;54257;54.496;18.412;2023-05-19T05:17:15;101211.37;;;8.48;77.41
67373;BME280;54257;54.496;18.412;2023-05-19T05:19:43;101209.63;;;8.62;77.06
67373;BME280;54257;54.496;18.412;2023-05-19T05:22:11;101210.80;;;8.77;76.90
67373;BME280;54257;54.496;18.412;2023-05-19T05:24:38;101209.10;;;8.92;76.54
67373;BME280;54257;54.496;18.412;2023-05-19T05:27:06;101209.88;;;9.07;75.93
67373;BME280;54257;54.496;18.412;2023-05-19T05:29:35;101207.06;;;9.20;75.53
67373;BME280;54257;54.496;18.412;2023-05-19T05:32:02;101209.72;;;9.35;75.03
67373;BME280;54257;54.496;18.412;2023-05-19T05:34:29;101208.13;;;9.50;74.30
67373;BME280;54257;54.496;18.412;2023-05-19T05:36:56;101208.68;;;9.64;73.40
67373;BME280;54257;54.496;18.412;2023-05-19T05:39:24;101209.95;;;9.78;72.90
67373;BME280;54257;54.496;18.412;2023-05-19T05:41:52;101206.73;;;9.96;72.50
67373;BME280;54257;54.496;18.412;2023-05-19T05:44:19;101207.56;;;10.13;72.09
67373;BME280;54257;54.496;18.412;2023-05-19T05:46:46;101210.67;;;10.31;71.12
67373;BME280;54257;54.496;18.412;2023-05-19T05:49:14;101207.09;;;10.45;70.38
67373;BME280;54257;54.496;18.412;2023-05-19T05:51:41;101205.88;;;10.58;69.63
67373;BME280;54257;54.496;18.412;2023-05-19T05:54:10;101211.91;;;10.73;69.05
67373;BME280;54257;54.496;18.412;2023-05-19T05:56:38;101210.02;;;10.87;68.47
67373;BME280;54257;54.496;18.412;2023-05-19T05:59:06;101210.78;;;11.00;67.93
67373;BME280;54257;54.496;18.412;2023-05-19T06:01:33;101212.67;;;11.14;67.87
67373;BME280;54257;54.496;18.412;2023-05-19T06:04:02;101211.21;;;11.32;67.98
67373;BME280;54257;54.496;18.412;2023-05-19T06:06:28;101215.73;;;11.49;66.82
67373;BME280;54257;54.496;18.412;2023-05-19T06:08:55;101213.66;;;11.64;66.84
67373;BME280;54257;54.496;18.412;2023-05-19T06:11:22;101210.66;;;11.82;65.67
67373;BME280;54257;54.496;18.412;2023-05-19T06:13:50;101209.71;;;12.01;65.92
67373;BME280;54257;54.496;18.412;2023-05-19T06:16:17;101209.22;;;12.23;65.56
67373;BME280;54257;54.496;18.412;2023-05-19T06:18:44;101209.30;;;12.44;64.84
67373;BME280;54257;54.496;18.412;2023-05-19T06:21:11;101206.83;;;12.65;64.33
67373;BME280;54257;54.496;18.412;2023-05-19T06:23:39;101210.48;;;12.79;63.01
67373;BME280;54257;54.496;18.412;2023-05-19T06:26:06;101214.12;;;12.93;63.25
67373;BME280;54257;54.496;18.412;2023-05-19T06:28:33;101208.35;;;13.14;63.57
67373;BME280;54257;54.496;18.412;2023-05-19T06:31:00;101206.16;;;13.35;62.54
67373;BME280;54257;54.496;18.412;2023-05-19T06:33:27;101206.32;;;13.41;61.30
67373;BME280;54257;54.496;18.412;2023-05-19T06:35:54;101206.50;;;13.56;61.92
67373;BME280;54257;54.496;18.412;2023-05-19T06:38:21;101204.06;;;13.76;61.42
67373;BME280;54257;54.496;18.412;2023-05-19T06:40:47;101201.90;;;13.93;60.18
67373;BME280;54257;54.496;18.412;2023-05-19T06:43:15;101207.05;;;14.08;60.05
67373;BME280;54257;54.496;18.412;2023-05-19T06:45:41;101205.59;;;14.28;59.92
67373;BME280;54257;54.496;18.412;2023-05-19T06:48:08;101206.05;;;14.48;59.88
67373;BME280;54257;54.496;18.412;2023-05-19T06:50:35;101209.70;;;14.75;59.88
67373;BME280;54257;54.496;18.412;2023-05-19T06:53:02;101209.11;;;14.98;59.19
67373;BME280;54257;54.496;18.412;2023-05-19T06:55:30;101210.08;;;15.23;59.04
67373;BME280;54257;54.496;18.412;2023-05-19T06:57:57;101206.37;;;15.47;57.68
67373;BME280;54257;54.496;18.412;2023-05-19T07:00:24;101204.65;;;15.58;56.48
67373;BME280;54257;54.496;18.412;2023-05-19T07:02:52;101207.61;;;15.59;55.24
67373;BME280;54257;54.496;18.412;2023-05-19T07:05:19;101203.27;;;15.65;55.23
67373;BME280;54257;54.496;18.412;2023-05-19T07:07:46;101197.92;;;15.76;54.98
67373;BME280;54257;54.496;18.412;2023-05-19T07:10:13;101199.72;;;15.93;54.95
67373;BME280;54257;54.496;18.412;2023-05-19T07:12:43;101198.31;;;16.15;54.93
67373;BME280;54257;54.496;18.412;2023-05-19T07:15:10;101196.73;;;16.39;54.03
67373;BME280;54257;54.496;18.412;2023-05-19T07:17:37;101191.52;;;16.62;54.06
67373;BME280;54257;54.496;18.412;2023-05-19T07:20:05;101194.27;;;16.91;53.06
67373;BME280;54257;54.496;18.412;2023-05-19T07:22:35;101194.67;;;17.13;52.22
67373;BME280;54257;54.496;18.412;2023-05-19T07:25:06;101197.25;;;17.29;51.82
67373;BME280;54257;54.496;18.412;2023-05-19T07:27:34;101193.27;;;17.50;51.20
67373;BME280;54257;54.496;18.412;2023-05-19T07:30:02;101190.80;;;17.64;48.76
67373;BME280;54257;54.496;18.412;2023-05-19T07:32:29;101188.66;;;17.76;48.82
67373;BME280;54257;54.496;18.412;2023-05-19T07:34:56;101187.56;;;17.92;48.43
67373;BME280;54257;54.496;18.412;2023-05-19T07:37:23;101186.67;;;18.18;48.50
67373;BME280;54257;54.496;18.412;2023-05-19T07:39:50;101188.19;;;18.45;47.44
67373;BME280;54257;54.496;18.412;2023-05-19T07:42:17;101188.47;;;18.67;46.47
67373;BME280;54257;54.496;18.412;2023-05-19T07:44:44;101184.85;;;18.73;45.75
67373;BME280;54257;54.496;18.412;2023-05-19T07:47:11;101183.67;;;18.85;45.70
67373;BME280;54257;54.496;18.412;2023-05-19T07:49:38;101182.48;;;18.92;44.01
67373;BME280;54257;54.496;18.412;2023-05-19T07:52:05;101181.92;;;18.79;44.65
67373;BME280;54257;54.496;18.412;2023-05-19T07:54:32;101180.04;;;18.88;45.35
67373;BME280;54257;54.496;18.412;2023-05-19T07:56:59;101180.77;;;19.02;45.24
67373;BME280;54257;54.496;18.412;2023-05-19T07:59:26;101178.54;;;19.18;44.42
67373;BME280;54257;54.496;18.412;2023-05-19T08:01:53;101181.66;;;19.31;44.94
67373;BME280;54257;54.496;18.412;2023-05-19T08:04:20;101176.64;;;19.50;44.69
67373;BME280;54257;54.496;18.412;2023-05-19T08:06:47;101180.13;;;19.67;43.61
67373;BME280;54257;54.496;18.412;2023-05-19T08:09:14;101180.30;;;19.56;42.97
67373;BME280;54257;54.496;18.412;2023-05-19T08:11:41;101183.05;;;19.43;43.39
67373;BME280;54257;54.496;18.412;2023-05-19T08:14:08;101184.44;;;19.36;43.39
67373;BME280;54257;54.496;18.412;2023-05-19T08:16:36;101185.14;;;19.34;43.19
67373;BME280;54257;54.496;18.412;2023-05-19T08:19:03;101185.30;;;19.42;43.68
67373;BME280;54257;54.496;18.412;2023-05-19T08:21:32;101180.83;;;19.60;43.17
67373;BME280;54257;54.496;18.412;2023-05-19T08:24:00;101178.91;;;19.70;42.97
67373;BME280;54257;54.496;18.412;2023-05-19T08:26:29;101178.23;;;19.66;41.76
67373;BME280;54257;54.496;18.412;2023-05-19T08:28:56;101176.67;;;19.61;42.03
67373;BME280;54257;54.496;18.412;2023-05-19T08:31:23;101176.66;;;19.64;41.93
67373;BME280;54257;54.496;18.412;2023-05-19T08:33:50;101174.90;;;19.87;42.57
67373;BME280;54257;54.496;18.412;2023-05-19T08:36:18;101178.15;;;20.01;41.79
67373;BME280;54257;54.496;18.412;2023-05-19T08:38:45;101178.16;;;20.00;41.40
67373;BME280;54257;54.496;18.412;2023-05-19T08:41:12;101174.55;;;19.90;41.79
67373;BME280;54257;54.496;18.412;2023-05-19T08:43:42;101175.96;;;19.77;42.09
67373;BME280;54257;54.496;18.412;2023-05-19T08:46:12;101174.57;;;19.60;41.84
67373;BME280;54257;54.496;18.412;2023-05-19T08:48:43;101176.48;;;19.39;41.99
67373;BME280;54257;54.496;18.412;2023-05-19T08:51:32;101181.48;;;19.20;42.36
67373;BME280;54257;54.496;18.412;2023-05-19T08:54:11;101180.23;;;18.92;42.44
67373;BME280;54257;54.496;18.412;2023-05-19T08:56:42;101180.18;;;18.72;43.58
67373;BME280;54257;54.496;18.412;2023-05-19T08:59:13;101182.77;;;18.68;44.22
67373;BME280;54257;54.496;18.412;2023-05-19T09:01:44;101183.80;;;18.68;44.53
67373;BME280;54257;54.496;18.412;2023-05-19T09:04:12;101177.23;;;18.71;44.43
67373;BME280;54257;54.496;18.412;2023-05-19T09:06:39;101180.64;;;18.64;44.86
67373;BME280;54257;54.496;18.412;2023-05-19T09:09:07;101179.59;;;18.62;44.45
67373;BME280;54257;54.496;18.412;2023-05-19T09:11:34;101183.91;;;18.57;44.57
67373;BME280;54257;54.496;18.412;2023-05-19T09:14:04;101182.15;;;18.51;44.99
67373;BME280;54257;54.496;18.412;2023-05-19T09:16:31;101179.00;;;18.41;45.12
67373;BME280;54257;54.496;18.412;2023-05-19T09:18:59;101180.52;;;18.35;45.21
67373;BME280;54257;54.496;18.412;2023-05-19T09:21:27;101179.31;;;18.33;45.67
67373;BME280;54257;54.496;18.412;2023-05-19T09:23:57;101180.51;;;18.30;45.89
67373;BME280;54257;54.496;18.412;2023-05-19T09:26:35;101181.54;;;18.29;45.75
67373;BME280;54257;54.496;18.412;2023-05-19T09:29:10;101187.23;;;18.26;46.08
67373;BME280;54257;54.496;18.412;2023-05-19T09:31:37;101189.80;;;18.21;46.15
67373;BME280;54257;54.496;18.412;2023-05-19T09:34:10;101188.89;;;18.13;46.32
67373;BME280;54257;54.496;18.412;2023-05-19T09:36:39;101189.73;;;18.07;46.34
67373;BME280;54257;54.496;18.412;2023-05-19T09:39:18;101192.98;;;18.01;46.13
67373;BME280;54257;54.496;18.412;2023-05-19T09:41:46;101192.11;;;18.00;45.24
67373;BME280;54257;54.496;18.412;2023-05-19T09:44:23;101189.95;;;17.88;45.37
67373;BME280;54257;54.496;18.412;2023-05-19T09:46:56;101184.90;;;17.82;45.27
67373;BME280;54257;54.496;18.412;2023-05-19T09:49:25;101176.75;;;17.76;45.28
67373;BME280;54257;54.496;18.412;2023-05-19T09:52:01;101172.75;;;17.74;45.84
67373;BME280;54257;54.496;18.412;2023-05-19T09:54:29;101172.60;;;17.76;46.43
67373;BME280;54257;54.496;18.412;2023-05-19T09:57:02;101171.92;;;17.78;46.34
67373;BME280;54257;54.496;18.412;2023-05-19T09:59:30;101174.90;;;17.65;45.64
67373;BME280;54257;54.496;18.412;2023-05-19T10:01:58;101178.80;;;17.55;45.73
67373;BME280;54257;54.496;18.412;2023-05-19T10:04:27;101176.90;;;17.55;46.18
67373;BME280;54257;54.496;18.412;2023-05-19T10:06:55;101178.62;;;17.52;45.67
67373;BME280;54257;54.496;18.412;2023-05-19T10:09:26;101175.83;;;17.50;45.61
67373;BME280;54257;54.496;18.412;2023-05-19T10:11:55;101176.61;;;17.40;45.72
67373;BME280;54257;54.496;18.412;2023-05-19T10:14:24;101172.95;;;17.36;45.90
67373;BME280;54257;54.496;18.412;2023-05-19T10:16:53;101172.21;;;17.32;45.96
67373;BME280;54257;54.496;18.412;2023-05-19T10:19:23;101168.70;;;17.24;46.05
67373;BME280;54257;54.496;18.412;2023-05-19T10:21:51;101174.45;;;17.12;46.00
67373;BME280;54257;54.496;18.412;2023-05-19T10:24:19;101175.55;;;16.99;46.59
67373;BME280;54257;54.496;18.412;2023-05-19T10:27:07;101177.60;;;16.97;47.05
67373;BME280;54257;54.496;18.412;2023-05-19T10:29:39;101180.55;;;16.99;47.45
67373;BME280;54257;54.496;18.412;2023-05-19T10:32:14;101178.11;;;16.97;47.95
67373;BME280;54257;54.496;18.412;2023-05-19T10:40:49;101179.69;;;16.83;48.19
67373;BME280;54257;54.496;18.412;2023-05-19T10:43:30;101180.02;;;16.68;48.25
67373;BME280;54257;54.496;18.412;2023-05-19T10:45:59;101177.81;;;16.57;48.48
67373;BME280;54257;54.496;18.412;2023-05-19T10:48:32;101173.27;;;16.52;48.57
67373;BME280;54257;54.496;18.412;2023-05-19T10:51:00;101177.89;;;16.49;48.80
67373;BME280;54257;54.496;18.412;2023-05-19T10:53:31;101175.29;;;16.47;49.03
67373;BME280;54257;54.496;18.412;2023-05-19T10:56:01;101171.98;;;16.46;49.29
67373;BME280;54257;54.496;18.412;2023-05-19T11:01:06;101168.56;;;16.48;49.65
67373;BME280;54257;54.496;18.412;2023-05-19T11:03:46;101164.71;;;16.44;49.91
67373;BME280;54257;54.496;18.412;2023-05-19T11:06:30;101167.97;;;16.42;50.04
67373;BME280;54257;54.496;18.412;2023-05-19T11:09:15;101169.26;;;16.35;50.08
67373;BME280;54257;54.496;18.412;2023-05-19T11:11:47;101167.00;;;16.34;50.37
67373;BME280;54257;54.496;18.412;2023-05-19T11:14:19;101166.98;;;16.31;50.01
67373;BME280;54257;54.496;18.412;2023-05-19T11:16:47;101171.77;;;16.28;49.85
67373;BME280;54257;54.496;18.412;2023-05-19T11:19:27;101172.52;;;16.20;49.76
67373;BME280;54257;54.496;18.412;2023-05-19T11:21:55;101170.58;;;16.16;50.06
67373;BME280;54257;54.496;18.412;2023-05-19T11:27:19;101172.67;;;16.06;49.94
67373;BME280;54257;54.496;18.412;2023-05-19T11:29:47;101169.30;;;15.98;50.14
67373;BME280;54257;54.496;18.412;2023-05-19T11:32:14;101168.22;;;15.95;50.37
67373;BME280;54257;54.496;18.412;2023-05-19T11:34:43;101164.90;;;15.92;50.61
67373;BME280;54257;54.496;18.412;2023-05-19T11:37:10;101164.55;;;15.91;50.70
67373;BME280;54257;54.496;18.412;2023-05-19T11:39:40;101167.94;;;15.88;50.74
67373;BME280;54257;54.496;18.412;2023-05-19T11:42:08;101170.86;;;15.76;51.05
67373;BME280;54257;54.496;18.412;2023-05-19T11:44:38;101170.08;;;15.70;51.46
67373;BME280;54257;54.496;18.412;2023-05-19T11:47:09;101169.34;;;15.65;51.61
67373;BME280;54257;54.496;18.412;2023-05-19T11:49:36;101173.77;;;15.63;51.81
67373;BME280;54257;54.496;18.412;2023-05-19T11:52:03;101181.38;;;15.56;51.73
67373;BME280;54257;54.496;18.412;2023-05-19T11:54:33;101183.98;;;15.47;51.83
67373;BME280;54257;54.496;18.412;2023-05-19T11:57:02;101190.16;;;15.36;52.21
67373;BME280;54257;54.496;18.412;2023-05-19T11:59:33;101190.75;;;15.29;52.26
67373;BME280;54257;54.496;18.412;2023-05-19T12:02:02;101192.70;;;15.23;52.44
67373;BME280;54257;54.496;18.412;2023-05-19T12:04:32;101196.40;;;15.17;52.88
67373;BME280;54257;54.496;18.412;2023-05-19T12:06:59;101201.17;;;15.15;53.14
67373;BME280;54257;54.496;18.412;2023-05-19T12:09:27;101205.08;;;15.12;53.27
67373;BME280;54257;54.496;18.412;2023-05-19T12:11:54;101204.48;;;15.17;53.45
67373;BME280;54257;54.496;18.412;2023-05-19T12:14:21;101202.45;;;15.20;53.19
67373;BME280;54257;54.496;18.412;2023-05-19T12:16:48;101201.08;;;15.19;52.84
67373;BME280;54257;54.496;18.412;2023-05-19T12:19:14;101207.40;;;15.17;52.54
67373;BME280;54257;54.496;18.412;2023-05-19T12:21:41;101211.93;;;15.11;51.90
67373;BME280;54257;54.496;18.412;2023-05-19T12:24:09;101214.80;;;14.98;51.94
67373;BME280;54257;54.496;18.412;2023-05-19T12:26:36;101219.58;;;14.88;52.34
67373;BME280;54257;54.496;18.412;2023-05-19T12:29:04;101226.09;;;14.86;52.87
67373;BME280;54257;54.496;18.412;2023-05-19T12:31:33;101227.92;;;14.91;53.36
67373;BME280;54257;54.496;18.412;2023-05-19T12:34:00;101230.80;;;14.98;53.59
67373;BME280;54257;54.496;18.412;2023-05-19T12:36:27;101227.48;;;15.04;53.32
67373;BME280;54257;54.496;18.412;2023-05-19T12:38:55;101231.43;;;15.13;53.25
67373;BME280;54257;54.496;18.412;2023-05-19T12:41:23;101226.79;;;15.23;53.40
67373;BME280;54257;54.496;18.412;2023-05-19T12:43:50;101229.83;;;15.29;53.90
67373;BME280;54257;54.496;18.412;2023-05-19T12:46:17;101219.20;;;15.32;53.88
67373;BME280;54257;54.496;18.412;2023-05-19T12:48:45;101225.57;;;15.41;53.91
67373;BME280;54257;54.496;18.412;2023-05-19T12:51:18;101225.19;;;15.49;53.48
67373;BME280;54257;54.496;18.412;2023-05-19T12:53:46;101223.60;;;15.58;52.94
67373;BME280;54257;54.496;18.412;2023-05-19T12:56:14;101221.34;;;15.65;51.63
67373;BME280;54257;54.496;18.412;2023-05-19T12:58:41;101214.64;;;15.65;51.06
67373;BME280;54257;54.496;18.412;2023-05-19T13:01:16;101214.86;;;15.69;51.26
67373;BME280;54257;54.496;18.412;2023-05-19T13:03:43;101213.59;;;15.76;50.96
67373;BME280;54257;54.496;18.412;2023-05-19T13:06:10;101219.10;;;15.76;50.91
67373;BME280;54257;54.496;18.412;2023-05-19T13:08:37;101212.36;;;15.74;50.73
67373;BME280;54257;54.496;18.412;2023-05-19T13:11:06;101213.02;;;15.71;50.37
67373;BME280;54257;54.496;18.412;2023-05-19T13:13:33;101210.42;;;15.62;50.27
67373;BME280;54257;54.496;18.412;2023-05-19T13:16:00;101207.60;;;15.58;50.40
67373;BME280;54257;54.496;18.412;2023-05-19T13:18:27;101202.34;;;15.53;50.27